Time;durP1;ratioP1;P1;durP2;ratioP2;P2;SDS_P1;SDS_P2;PMS_P1;PMS_P2;Temp;Humidity;BMP_temperature;BMP_pressure;BME280_temperature;BME280_humidity;BME280_pressure;Samples;Min_cycle;Max_cycle;Signal;HPM_P1;HPM_P2
2022/10/09 18:49:17;;;;;;;5.93;2.40;;;;;;;13.87;58.74;96516.56;5140104;27;20119;-78
2022/10/09 18:51:46;;;;;;;12.65;3.72;;;;;;;13.51;60.24;96515.22;5113740;28;20129;-77
2022/10/09 18:57:27;;;;;;;34.50;3.47;;;;;;;12.76;63.03;96501.31;5128053;27;20177;-78
2022/10/09 18:59:57;;;;;;;3.60;2.20;;;;;;;12.53;63.80;96503.50;5140747;27;20506;-78
2022/10/09 19:02:25;;;;;;;60.35;9.60;;;;;;;12.35;64.96;96504.66;5139218;27;20589;-78
2022/10/09 19:04:52;;;;;;;52.28;13.30;;;;;;;12.13;66.18;96503.75;5141291;27;20039;-78
2022/10/09 19:07:21;;;;;;;37.17;4.70;;;;;;;12.00;67.12;96507.44;5135523;27;20040;-77
2022/10/09 19:09:48;;;;;;;9.70;2.25;;;;;;;11.84;68.05;96504.41;5119942;28;20130;-77
2022/10/09 19:12:16;;;;;;;34.22;4.47;;;;;;;11.72;68.58;96501.53;5118446;28;20059;-78
2022/10/09 19:14:44;;;;;;;46.20;8.68;;;;;;;11.57;68.72;96500.06;5118290;28;20043;-78
2022/10/09 19:17:12;;;;;;;14.23;3.95;;;;;;;11.49;69.66;96498.16;5118846;28;20050;-78
2022/10/09 19:19:39;;;;;;;9.48;3.15;;;;;;;11.41;70.16;96493.50;5119790;28;20842;-78
2022/10/09 19:22:06;;;;;;;5.85;2.80;;;;;;;11.30;69.96;96489.47;5121093;28;20050;-78
2022/10/09 19:24:33;;;;;;;6.40;3.13;;;;;;;11.21;69.96;96494.91;5120095;27;20069;-77
2022/10/09 19:27:09;;;;;;;14.90;3.75;;;;;;;11.19;70.45;96492.50;5119664;27;20123;-78
2022/10/09 20:02:07;;;;;;;17.85;3.75;;;;;;;9.47;77.49;96484.25;5077830;27;20401;-78
2022/10/09 20:04:34;;;;;;;60.05;9.57;;;;;;;9.46;77.42;96486.19;5073564;28;20160;-77
2022/10/09 20:07:00;;;;;;;57.08;21.77;;;;;;;9.50;77.16;96484.47;5077780;28;20055;-78
2022/10/09 20:09:27;;;;;;;183.55;71.10;;;;;;;9.55;77.60;96476.19;5066996;28;20041;-78
2022/10/09 20:11:53;;;;;;;179.60;52.15;;;;;;;9.58;76.91;96481.00;5074358;28;20052;-78
2022/10/09 20:14:20;;;;;;;350.50;89.90;;;;;;;9.62;76.47;96473.81;5086467;28;20495;-78
2022/10/09 20:16:47;;;;;;;358.45;87.18;;;;;;;9.62;76.09;96475.75;5086603;28;20072;-78
2022/10/09 20:19:15;;;;;;;391.48;94.53;;;;;;;9.66;76.34;96482.19;5087090;28;20510;-79
2022/10/09 20:21:41;;;;;;;354.38;92.30;;;;;;;9.67;76.14;96478.34;5088491;28;20048;-77
2022/10/09 20:24:08;;;;;;;395.02;109.25;;;;;;;9.71;76.19;96478.50;5086810;28;20068;-80
2022/10/09 20:26:35;;;;;;;346.58;95.88;;;;;;;9.74;75.65;96483.34;5088227;28;20071;-78
2022/10/09 20:29:01;;;;;;;324.48;89.10;;;;;;;9.74;75.60;96478.69;5088120;28;20048;-77
2022/10/09 20:31:29;;;;;;;289.40;100.10;;;;;;;9.70;75.46;96476.91;5088579;28;20044;-78
2022/10/09 20:33:55;;;;;;;289.60;86.60;;;;;;;9.78;75.68;96476.19;5088495;28;20068;-77
2022/10/09 20:36:26;;;;;;;305.38;90.05;;;;;;;9.66;75.60;96484.91;5087615;28;20052;-77
2022/10/09 20:38:55;;;;;;;172.63;44.80;;;;;;;9.63;75.46;96478.16;5088176;28;20045;-77
2022/10/09 20:41:23;;;;;;;27.17;4.28;;;;;;;9.60;75.78;96473.31;5087991;28;20056;-77
2022/10/09 20:43:51;;;;;;;6.43;2.88;;;;;;;9.67;75.91;96473.72;5088123;28;20044;-76
2022/10/09 20:46:19;;;;;;;10.65;3.08;;;;;;;9.75;76.14;96471.34;5087917;28;20514;-78
2022/10/09 20:48:47;;;;;;;9.20;3.30;;;;;;;9.81;75.97;96464.66;5088231;28;20123;-77
2022/10/09 20:51:13;;;;;;;7.78;3.50;;;;;;;9.83;76.01;96465.19;5087829;28;20044;-77
2022/10/09 20:53:41;;;;;;;9.50;3.17;;;;;;;9.88;75.79;96465.03;5087795;28;20052;-77
2022/10/09 20:56:11;;;;;;;38.53;4.00;;;;;;;9.96;75.99;96467.00;5088040;28;20056;-77
2022/10/09 20:58:38;;;;;;;16.95;3.50;;;;;;;9.96;76.94;96466.19;5089108;28;20053;-77
2022/10/09 21:01:06;;;;;;;43.30;10.05;;;;;;;9.97;77.60;96455.03;5088027;28;20147;-77
2022/10/09 21:03:33;;;;;;;59.88;17.45;;;;;;;9.87;76.95;96449.84;5088699;28;20123;-77
2022/10/09 21:06:02;;;;;;;40.55;7.55;;;;;;;9.87;76.24;96455.28;5088980;28;20052;-78
2022/10/09 21:08:28;;;;;;;23.33;3.67;;;;;;;9.88;76.88;96454.16;5088105;28;20043;-77
2022/10/09 21:10:56;;;;;;;89.22;26.02;;;;;;;9.89;77.55;96453.84;5088577;28;20044;-76
2022/10/09 21:13:23;;;;;;;6.75;3.20;;;;;;;9.90;77.51;96454.66;5074744;28;20046;-77
2022/10/09 21:15:50;;;;;;;7.72;2.92;;;;;;;9.91;77.58;96450.81;5075062;28;20048;-77
2022/10/09 21:18:18;;;;;;;9.30;3.42;;;;;;;9.91;78.28;96450.81;5074247;28;20043;-77
2022/10/09 21:20:47;;;;;;;9.40;4.05;;;;;;;9.83;78.29;96448.84;5075366;28;20048;-77
2022/10/09 21:23:16;;;;;;;9.30;3.60;;;;;;;9.79;77.11;96445.16;5074533;28;20144;-77
2022/10/09 21:25:47;;;;;;;10.82;4.10;;;;;;;9.67;76.36;96449.22;5074572;28;20452;-77
2022/10/09 21:28:15;;;;;;;6.85;3.33;;;;;;;9.70;76.35;96449.72;5074177;28;20060;-76
2022/10/09 21:30:42;;;;;;;5.95;3.10;;;;;;;9.73;76.11;96449.09;5074773;28;20041;-78
2022/10/09 21:33:09;;;;;;;8.98;3.58;;;;;;;9.72;76.46;96452.94;5074353;28;20051;-77
2022/10/09 21:35:39;;;;;;;6.20;2.80;;;;;;;9.76;76.64;96453.91;5074825;28;20040;-76
2022/10/09 21:38:05;;;;;;;6.07;3.25;;;;;;;9.80;77.93;96450.25;5074312;28;20055;-77
2022/10/09 21:40:32;;;;;;;7.10;2.78;;;;;;;9.80;77.24;96450.25;5074118;28;20040;-77
2022/10/09 21:42:58;;;;;;;5.65;2.75;;;;;;;9.79;77.19;96447.88;5074174;28;20067;-77
2022/10/09 21:45:26;;;;;;;5.57;2.72;;;;;;;9.79;77.13;96453.31;5074180;28;20553;-77
2022/10/09 21:47:53;;;;;;;5.72;2.50;;;;;;;9.79;77.43;96445.16;5074852;28;20048;-77
2022/10/09 21:50:19;;;;;;;5.13;2.70;;;;;;;9.78;77.96;96443.53;5073900;28;20041;-77
2022/10/09 21:52:47;;;;;;;5.63;2.80;;;;;;;9.74;77.95;96439.84;5074445;28;20385;-76
2022/10/09 21:55:13;;;;;;;6.80;2.90;;;;;;;9.72;78.41;96448.31;5073831;28;20045;-77
2022/10/09 21:57:40;;;;;;;6.97;3.13;;;;;;;9.59;77.80;96444.53;5074496;28;20048;-77
2022/10/09 22:00:08;;;;;;;7.80;3.25;;;;;;;9.59;77.68;96433.66;5072381;28;20060;-77
2022/10/09 22:02:37;;;;;;;6.75;2.75;;;;;;;9.60;77.96;96440.69;5072624;28;20051;-77
2022/10/09 22:05:04;;;;;;;4.88;2.65;;;;;;;9.64;78.58;96441.69;5072261;28;20045;-76
2022/10/09 22:07:31;;;;;;;6.70;2.63;;;;;;;9.62;78.57;96443.91;5072365;28;20050;-77
2022/10/09 22:09:58;;;;;;;6.15;2.85;;;;;;;9.62;78.82;96445.84;5072085;28;20060;-77
2022/10/09 22:12:25;;;;;;;6.35;2.83;;;;;;;9.60;78.84;96443.41;5071924;28;20040;-77
2022/10/09 22:14:51;;;;;;;5.97;3.33;;;;;;;9.60;78.94;96448.84;5072568;28;20127;-76
2022/10/09 22:17:18;;;;;;;5.03;2.90;;;;;;;9.59;79.22;96449.97;5072049;28;20124;-77
2022/10/09 22:19:46;;;;;;;8.60;3.03;;;;;;;9.58;79.09;96458.44;5072372;28;20043;-77
2022/10/09 22:22:12;;;;;;;6.53;2.80;;;;;;;9.55;78.49;96451.72;5071987;28;20044;-77
2022/10/09 22:24:39;;;;;;;7.97;3.05;;;;;;;9.51;78.44;96441.75;5071229;28;20044;-76
2022/10/09 22:27:06;;;;;;;6.07;2.58;;;;;;;9.47;78.13;96449.72;5071909;28;20052;-77
2022/10/09 22:29:33;;;;;;;4.90;2.75;;;;;;;9.43;77.94;96440.56;5072212;28;20402;-77
2022/10/09 22:31:59;;;;;;;6.70;2.70;;;;;;;9.43;77.69;96437.06;5072611;28;20052;-76
2022/10/09 22:34:28;;;;;;;8.23;2.63;;;;;;;9.26;77.38;96440.44;5072621;28;20044;-75
2022/10/09 22:36:56;;;;;;;4.70;2.40;;;;;;;9.27;77.28;96431.19;5072933;28;20131;-77
2022/10/09 22:39:22;;;;;;;5.82;3.05;;;;;;;9.21;77.74;96425.06;5072289;28;20044;-77
2022/10/09 22:41:49;;;;;;;5.93;2.90;;;;;;;9.15;77.62;96429.81;5071967;28;20549;-77
2022/10/09 22:44:15;;;;;;;5.47;2.65;;;;;;;9.23;77.76;96435.63;5072052;28;20055;-77
2022/10/09 22:46:46;;;;;;;6.05;3.30;;;;;;;9.26;78.53;96430.38;5072797;28;20406;-77
2022/10/09 22:49:14;;;;;;;4.47;2.67;;;;;;;9.25;78.91;96419.81;5071764;28;20049;-76
2022/10/09 22:51:41;;;;;;;5.07;2.80;;;;;;;9.21;79.12;96426.97;5072164;28;20041;-76
2022/10/09 22:54:11;;;;;;;9.20;2.75;;;;;;;9.16;78.84;96425.19;5070838;28;20040;-76
2022/10/09 22:56:39;;;;;;;8.82;3.42;;;;;;;9.14;79.00;96428.22;5071799;28;20525;-77
2022/10/09 22:59:07;;;;;;;25.60;3.92;;;;;;;9.15;79.15;96421.66;5071430;28;20051;-78
2022/10/09 23:01:39;;;;;;;18.15;4.28;;;;;;;9.06;79.41;96430.84;5071364;28;20122;-76
2022/10/09 23:04:10;;;;;;;63.80;16.27;;;;;;;8.99;79.57;96430.47;5071347;28;20098;-76
2022/10/09 23:06:36;;;;;;;40.88;6.78;;;;;;;8.98;79.73;96435.09;5071982;28;20037;-76
2022/10/09 23:09:04;;;;;;;72.93;19.50;;;;;;;9.00;79.74;96426.63;5071431;28;20136;-77
2022/10/09 23:11:33;;;;;;;33.58;4.18;;;;;;;9.00;79.98;96429.34;5071460;28;20040;-77
2022/10/09 23:14:00;;;;;;;163.52;54.67;;;;;;;9.02;79.76;96436.06;5071814;28;20055;-77
2022/10/09 23:16:29;;;;;;;4.60;2.67;;;;;;;9.05;80.33;96430.03;5071412;28;20047;-77
2022/10/09 23:18:56;;;;;;;6.95;3.00;;;;;;;9.05;80.69;96440.09;5071347;28;20044;-77
2022/10/09 23:23:46;;;;;;;22.38;3.38;;;;;;;9.02;79.79;96444.22;5115189;27;20406;-77
2022/10/09 23:26:14;;;;;;;17.30;3.30;;;;;;;9.02;80.10;96436.06;5109101;28;20048;-78
2022/10/09 23:28:41;;;;;;;15.13;3.75;;;;;;;8.93;79.90;96447.97;5109171;28;20051;-77
2022/10/09 23:31:09;;;;;;;24.30;3.70;;;;;;;8.87;79.89;96449.97;5108795;28;20070;-78
2022/10/09 23:33:38;;;;;;;38.28;3.85;;;;;;;8.93;80.44;96448.78;5109308;28;20046;-77
2022/10/09 23:36:06;;;;;;;40.80;3.72;;;;;;;8.99;81.01;96450.28;5108853;28;20044;-76
2022/10/09 23:38:34;;;;;;;53.08;4.13;;;;;;;8.95;80.38;96457.44;5109087;28;20052;-76
2022/10/09 23:41:04;;;;;;;29.52;3.53;;;;;;;8.92;80.22;96449.88;5108821;28;20503;-77
2022/10/09 23:43:31;;;;;;;23.88;3.22;;;;;;;8.95;80.74;96452.00;5108721;28;20506;-75
2022/10/09 23:45:59;;;;;;;32.50;3.72;;;;;;;8.95;81.06;96451.19;5109319;28;20058;-76
2022/10/09 23:48:27;;;;;;;37.83;4.07;;;;;;;8.93;81.70;96451.50;5108398;28;20545;-76
2022/10/09 23:50:54;;;;;;;49.92;15.80;;;;;;;8.93;81.73;96437.09;5109293;27;20067;-76
2022/10/09 23:53:21;;;;;;;27.90;3.80;;;;;;;8.91;81.82;96440.13;5108738;27;20040;-76
2022/10/09 23:55:48;;;;;;;25.25;3.20;;;;;;;8.93;82.07;96437.09;5109084;28;20052;-75
2022/10/09 23:58:16;;;;;;;30.90;4.60;;;;;;;8.90;82.31;96438.53;5108067;27;20502;-76
